createdAt,value
2022-12-05T04:45:27.070Z,5.84
2022-12-05T04:48:29.747Z,6.15
2022-12-05T04:51:34.351Z,6.33
2022-12-05T04:55:01.272Z,6.41
2022-12-05T04:58:12.509Z,6.22
2022-12-05T05:01:22.826Z,6.08
2022-12-05T05:04:42.812Z,6.24
2022-12-05T05:07:54.744Z,6.13
2022-12-05T05:11:17.311Z,6.15
2022-12-05T05:14:19.618Z,6.10
2022-12-05T05:17:21.690Z,6.18
2022-12-05T05:20:24.025Z,6.05
2022-12-05T05:23:26.144Z,5.79
2022-12-05T05:26:30.651Z,5.98
2022-12-05T05:29:32.756Z,5.95
2022-12-05T05:32:35.132Z,5.93
2022-12-05T05:35:37.464Z,6.01
2022-12-05T05:38:52.878Z,6.17
2022-12-05T05:41:54.928Z,6.25
2022-12-05T05:44:57.287Z,6.09
2022-12-05T05:47:59.311Z,6.32
2022-12-05T05:51:03.317Z,6.38
2022-12-05T05:54:05.371Z,6.33
2022-12-05T05:57:07.725Z,6.39
2022-12-05T06:00:10.369Z,6.46
2022-12-05T06:03:12.819Z,6.28
2022-12-05T06:06:15.333Z,6.28
2022-12-05T06:09:19.372Z,6.16
2022-12-05T06:12:21.811Z,6.07
2022-12-05T06:15:24.606Z,6.30
2022-12-05T06:18:26.692Z,6.36
2022-12-05T06:21:28.991Z,6.24
2022-12-05T06:24:31.015Z,6.27
2022-12-05T06:27:33.960Z,6.16
2022-12-05T06:30:38.313Z,6.23
2022-12-05T06:33:40.934Z,6.39
2022-12-05T06:36:42.973Z,6.32
2022-12-05T06:39:45.459Z,6.14
2022-12-05T06:42:47.561Z,5.99
2022-12-05T06:45:50.176Z,6.02
2022-12-05T06:48:53.996Z,6.16
2022-12-05T06:51:56.383Z,6.12
2022-12-05T06:54:59.761Z,6.35
2022-12-05T06:58:02.089Z,6.36
2022-12-05T07:01:23.065Z,6.40
2022-12-05T07:04:25.529Z,6.50
2022-12-05T07:07:29.758Z,6.38
2022-12-05T07:10:32.187Z,6.46
2022-12-05T07:13:34.228Z,6.61
2022-12-05T07:16:37.034Z,6.68
2022-12-05T07:19:39.185Z,6.69
2022-12-05T07:22:41.522Z,6.79
2022-12-05T07:25:45.960Z,6.84
2022-12-05T07:28:49.962Z,6.54
2022-12-05T07:31:54.063Z,6.58
2022-12-05T07:34:56.501Z,6.64
2022-12-05T07:37:58.760Z,6.75
2022-12-05T07:41:10.211Z,6.57
2022-12-05T07:44:15.079Z,6.65
2022-12-05T07:47:17.485Z,6.54
2022-12-05T07:50:19.573Z,6.64
2022-12-05T07:53:21.885Z,6.58
2022-12-05T07:56:23.964Z,6.50
2022-12-05T07:59:26.349Z,6.47
2022-12-05T08:02:28.543Z,6.45
2022-12-05T08:05:31.035Z,6.53
2022-12-05T08:08:33.518Z,6.55
2022-12-05T08:11:36.220Z,6.67
2022-12-05T08:14:38.324Z,6.62
2022-12-05T08:17:40.669Z,6.65
2022-12-05T08:20:42.723Z,6.82
2022-12-05T08:23:46.504Z,6.83
2022-12-05T08:26:48.617Z,6.81
2022-12-05T08:29:51.133Z,6.77
2022-12-05T08:32:53.217Z,6.68
2022-12-05T08:35:55.565Z,6.95
2022-12-05T08:38:59.641Z,7.16
2022-12-05T08:42:02.096Z,7.09
2022-12-05T08:45:04.528Z,7.12
2022-12-05T08:48:07.102Z,7.03
2022-12-05T08:51:11.728Z,7.06
2022-12-05T08:54:14.574Z,6.94
2022-12-05T08:57:16.663Z,7.10
2022-12-05T09:00:19.372Z,7.28
2022-12-05T09:03:21.409Z,7.10
2022-12-05T09:06:25.808Z,7.15
2022-12-05T09:09:27.998Z,7.17
2022-12-05T09:12:30.323Z,7.41
2022-12-05T09:15:32.423Z,7.34
2022-12-05T09:18:34.938Z,7.41
2022-12-05T09:21:37.031Z,7.50
2022-12-05T09:24:39.349Z,7.43
2022-12-05T09:27:42.395Z,7.33
2022-12-05T09:30:44.777Z,7.45
2022-12-05T09:33:48.599Z,7.56
2022-12-05T09:37:05.492Z,7.47
2022-12-05T09:40:18.899Z,7.41
2022-12-05T09:43:32.651Z,7.48
2022-12-05T09:47:02.783Z,7.45
2022-12-05T09:50:17.033Z,7.37
2022-12-05T09:53:32.011Z,7.31
2022-12-05T09:56:41.836Z,7.43
2022-12-05T09:59:47.908Z,7.41
2022-12-05T10:02:56.219Z,7.43
2022-12-05T10:06:12.383Z,7.62
2022-12-05T10:09:17.551Z,7.74
2022-12-05T10:12:50.095Z,7.75
2022-12-05T10:16:07.380Z,7.55
2022-12-05T10:19:18.622Z,7.57
2022-12-05T10:22:31.430Z,7.69
2022-12-05T10:25:34.887Z,7.67
2022-12-05T10:29:06.964Z,7.76
2022-12-05T10:32:16.088Z,7.93
2022-12-05T10:35:24.722Z,8.16
2022-12-05T10:38:30.816Z,8.54
2022-12-05T10:41:34.187Z,8.51
2022-12-05T10:44:37.203Z,8.71
2022-12-05T10:47:39.308Z,8.79
2022-12-05T10:50:43.692Z,8.68
2022-12-05T10:53:51.036Z,8.56
2022-12-05T10:56:53.933Z,8.48
2022-12-05T10:59:57.694Z,8.63
2022-12-05T11:03:05.927Z,8.63
2022-12-05T11:06:24.800Z,8.68
2022-12-05T11:09:29.983Z,8.78
2022-12-05T11:12:38.540Z,8.61
2022-12-05T11:15:50.739Z,8.66
2022-12-05T11:18:57.148Z,8.26
2022-12-05T11:22:00.662Z,8.21
2022-12-05T11:25:33.813Z,8.39
2022-12-05T11:28:37.766Z,8.44
2022-12-05T11:31:50.660Z,8.43
2022-12-05T11:35:08.587Z,8.51
2022-12-05T11:38:12.257Z,8.36
2022-12-05T11:41:45.860Z,8.49
2022-12-05T11:45:10.313Z,8.61
2022-12-05T11:48:33.919Z,8.55
2022-12-05T11:52:10.081Z,8.53
2022-12-05T11:55:25.049Z,8.41
2022-12-05T11:58:44.856Z,8.40
2022-12-05T12:02:27.908Z,8.48
2022-12-05T12:05:45.450Z,8.40
2022-12-05T12:09:26.674Z,8.47
2022-12-05T12:12:44.709Z,8.52
2022-12-05T12:16:12.508Z,8.46
2022-12-05T12:19:23.903Z,8.34
2022-12-05T12:26:56.111Z,8.07
2022-12-05T12:30:16.558Z,8.21
2022-12-05T12:33:34.534Z,8.37
2022-12-05T12:36:42.135Z,8.46
2022-12-05T12:39:55.193Z,8.50
2022-12-05T12:43:31.175Z,8.32
2022-12-05T12:46:59.011Z,8.36
2022-12-05T12:50:18.867Z,8.34
2022-12-05T12:53:24.307Z,8.38
2022-12-05T12:56:52.525Z,8.41
2022-12-05T13:00:21.640Z,8.34
2022-12-05T13:03:31.775Z,8.46
2022-12-05T13:07:01.840Z,8.56
2022-12-05T13:10:13.629Z,8.46
2022-12-05T13:13:32.385Z,8.39
2022-12-05T13:16:45.856Z,8.46
2022-12-05T13:19:51.350Z,8.38
2022-12-05T13:22:54.965Z,8.42
2022-12-05T13:25:59.046Z,8.38
2022-12-05T13:29:06.353Z,8.37
2022-12-05T13:32:33.627Z,8.30
2022-12-05T13:35:57.339Z,8.45
2022-12-05T13:39:21.440Z,8.42
2022-12-05T13:42:30.307Z,8.34
2022-12-05T13:45:34.618Z,8.40
2022-12-05T13:48:40.854Z,8.34
2022-12-05T13:51:45.836Z,8.41
2022-12-05T13:54:57.892Z,8.44
2022-12-05T13:58:02.662Z,8.39
2022-12-05T14:01:26.673Z,8.33
2022-12-05T14:04:46.168Z,8.32
2022-12-05T14:07:50.054Z,8.30
2022-12-05T14:10:52.402Z,8.34
2022-12-05T14:13:57.998Z,8.26
2022-12-05T14:17:03.220Z,8.34
2022-12-05T14:20:22.516Z,8.32
2022-12-05T14:23:57.633Z,8.42
2022-12-05T14:27:08.413Z,8.29
2022-12-05T14:30:23.330Z,8.33
2022-12-05T14:33:25.530Z,8.41
2022-12-05T14:36:30.904Z,8.34
2022-12-05T14:39:36.272Z,8.28
2022-12-05T14:42:44.236Z,8.09
2022-12-05T14:45:52.375Z,8.12
2022-12-05T14:48:56.082Z,8.15
2022-12-05T14:51:58.504Z,8.18
2022-12-05T14:55:26.863Z,8.15
2022-12-05T14:58:49.456Z,8.36
2022-12-05T15:01:59.036Z,8.13
2022-12-05T15:05:24.360Z,8.04
2022-12-05T15:08:30.493Z,8.18
2022-12-05T15:11:34.813Z,8.29
2022-12-05T15:15:04.164Z,8.39
2022-12-05T15:18:22.415Z,8.30
2022-12-05T15:21:44.729Z,8.25
2022-12-05T15:24:46.934Z,8.34
2022-12-05T15:27:58.667Z,8.12
2022-12-05T15:31:00.843Z,8.26
2022-12-05T15:34:22.280Z,8.26
2022-12-05T15:37:45.880Z,8.29
2022-12-05T15:40:49.770Z,8.41
2022-12-05T15:43:56.528Z,8.26
2022-12-05T15:46:58.874Z,8.32
2022-12-05T15:50:01.100Z,8.39
2022-12-05T15:53:12.498Z,8.43
2022-12-05T15:56:25.010Z,8.45
2022-12-05T15:59:34.208Z,8.28
2022-12-05T16:02:52.814Z,8.25
2022-12-05T16:06:04.164Z,8.26
2022-12-05T16:09:11.782Z,8.22
